createdAt,value
2019-01-04T00:00:14.278Z,99071.21
2019-01-04T00:01:49.501Z,99072.96
2019-01-04T00:03:25.113Z,99075.66
2019-01-04T00:05:00.606Z,99080.56
2019-01-04T00:06:36.512Z,99082.00
2019-01-04T00:08:12.249Z,99076.70
2019-01-04T00:09:48.160Z,99078.83
2019-01-04T00:11:23.963Z,99078.39
2019-01-04T00:13:00.403Z,99080.33
2019-01-04T00:14:36.497Z,99086.47
2019-01-04T00:16:13.094Z,99082.55
2019-01-04T00:17:48.580Z,99077.25
2019-01-04T00:19:26.283Z,99079.73
2019-01-04T00:21:02.357Z,99075.87
2019-01-04T00:22:39.421Z,99074.22
2019-01-04T00:24:17.274Z,99075.75
2019-01-04T00:25:54.166Z,99073.38
2019-01-04T00:27:32.255Z,99072.83
2019-01-04T00:29:07.667Z,99075.52
2019-01-04T00:30:45.293Z,99079.31
2019-01-04T00:32:20.947Z,99080.02
2019-01-04T00:33:59.490Z,99089.80
2019-01-04T00:35:39.883Z,99080.30
2019-01-04T00:37:17.239Z,99075.08
2019-01-04T00:38:57.783Z,99080.50
2019-01-04T00:40:35.830Z,99082.27
2019-01-04T00:42:19.696Z,99087.70
2019-01-04T00:43:57.699Z,99089.05
2019-01-04T00:45:33.968Z,99093.95
2019-01-04T00:47:21.116Z,99085.56
2019-01-04T00:49:00.415Z,99083.62
2019-01-04T00:50:38.431Z,99080.22
2019-01-04T00:52:16.636Z,99078.23
2019-01-04T00:53:53.131Z,99073.17
2019-01-04T00:56:13.981Z,99075.91
2019-01-04T00:58:39.499Z,99074.00
2019-01-04T01:00:51.667Z,99068.97
2019-01-04T01:03:21.329Z,99062.33
2019-01-04T01:05:21.401Z,99065.57
2019-01-04T01:07:30.454Z,99077.36
2019-01-04T01:10:02.855Z,99094.39
2019-01-04T01:12:12.220Z,99095.30
2019-01-04T01:14:59.537Z,99098.47
2019-01-04T01:17:28.362Z,99100.05
2019-01-04T01:19:43.109Z,99101.08
2019-01-04T01:22:04.297Z,99103.53
2019-01-04T01:24:19.315Z,99101.23
2019-01-04T01:26:33.277Z,99102.50
2019-01-04T01:28:51.474Z,99105.20
2019-01-04T01:31:10.123Z,99105.67
2019-01-04T01:33:26.667Z,99115.00
2019-01-04T01:35:33.647Z,99109.23
2019-01-04T01:37:44.625Z,99123.72
2019-01-04T01:39:54.883Z,99123.40
2019-01-04T01:41:56.995Z,99126.17
2019-01-04T01:44:09.645Z,99132.98
2019-01-04T01:46:44.890Z,99135.47
2019-01-04T01:48:39.346Z,99131.44
2019-01-04T01:51:10.785Z,99143.15
2019-01-04T01:52:50.410Z,99161.20
2019-01-04T01:54:25.813Z,99157.48
2019-01-04T01:56:01.086Z,99164.61
2019-01-04T01:57:36.340Z,99164.13
2019-01-04T01:59:11.643Z,99162.39
2019-01-04T02:00:54.698Z,99161.36
2019-01-04T02:02:30.042Z,99162.16
2019-01-04T02:04:07.863Z,99166.79
2019-01-04T02:05:45.776Z,99166.74
2019-01-04T02:07:21.095Z,99171.57
2019-01-04T02:08:56.702Z,99203.16
2019-01-04T02:10:32.124Z,99224.06
2019-01-04T02:12:07.617Z,99239.18
2019-01-04T02:13:46.219Z,99245.33
2019-01-04T02:15:23.405Z,99245.28
2019-01-04T02:17:01.120Z,99247.17
2019-01-04T02:18:40.316Z,99246.04
2019-01-04T02:20:15.531Z,99249.38
2019-01-04T02:21:51.237Z,99256.48
2019-01-04T02:23:29.014Z,99259.05
2019-01-04T02:25:04.259Z,99261.32
2019-01-04T02:26:39.977Z,99264.13
2019-01-04T02:28:15.195Z,99287.55
2019-01-04T02:29:50.931Z,99304.57
2019-01-04T02:31:26.258Z,99314.68
2019-01-04T02:33:01.626Z,99314.37
2019-01-04T02:34:38.077Z,99328.15
2019-01-04T02:36:13.483Z,99334.16
2019-01-04T02:37:50.430Z,99327.84
2019-01-04T02:39:28.323Z,99341.30
2019-01-04T02:41:03.705Z,99348.27
2019-01-04T02:42:38.914Z,99354.20
2019-01-04T02:44:14.212Z,99354.99
2019-01-04T02:45:50.268Z,99348.58
2019-01-04T02:47:25.482Z,99354.09
2019-01-04T02:49:00.773Z,99357.38
2019-01-04T02:50:40.075Z,99362.27
2019-01-04T02:52:19.341Z,99358.72
2019-01-04T02:53:54.607Z,99358.23
2019-01-04T02:55:29.821Z,99363.45
2019-01-04T02:57:05.145Z,99363.52
2019-01-04T02:58:40.405Z,99368.66
2019-01-04T03:00:18.696Z,99377.52
2019-01-04T03:01:53.917Z,99372.69
2019-01-04T03:03:29.188Z,99371.20
2019-01-04T03:05:04.413Z,99373.97
2019-01-04T03:06:40.013Z,99377.76
2019-01-04T03:08:15.719Z,99384.17
2019-01-04T03:09:51.075Z,99381.17
2019-01-04T03:11:26.812Z,99384.88
2019-01-04T03:13:02.207Z,99385.91
2019-01-04T03:14:37.824Z,99389.63
2019-01-04T03:16:13.396Z,99394.70
2019-01-04T03:17:48.809Z,99399.30
2019-01-04T03:19:31.636Z,99404.13
2019-01-04T03:21:14.169Z,99424.30
2019-01-04T03:22:49.412Z,99432.38
2019-01-04T03:24:25.568Z,99470.67
2019-01-04T03:26:00.766Z,99482.29
2019-01-04T03:27:36.145Z,99478.04
2019-01-04T03:29:13.856Z,99487.77
2019-01-04T03:30:49.277Z,99488.56
2019-01-04T03:32:29.036Z,99496.39
2019-01-04T03:34:01.801Z,99514.25
2019-01-04T03:35:37.472Z,99527.70
2019-01-04T03:37:13.280Z,99529.35
2019-01-04T03:38:48.821Z,99537.42
2019-01-04T03:40:24.261Z,99538.83
2019-01-04T03:42:00.294Z,99547.20
2019-01-04T03:43:35.491Z,99561.79
2019-01-04T03:45:10.829Z,99562.95
2019-01-04T03:46:46.350Z,99572.91
2019-01-04T03:48:21.554Z,99584.53
2019-01-04T03:49:56.990Z,99589.17
2019-01-04T03:51:32.313Z,99596.14
2019-01-04T03:53:10.646Z,99601.02
2019-01-04T03:54:46.302Z,99593.84
2019-01-04T03:56:21.486Z,99599.27
2019-01-04T03:57:57.493Z,99603.25
2019-01-04T03:59:32.713Z,99604.27
2019-01-04T04:01:09.084Z,99609.73
2019-01-04T04:02:44.712Z,99606.25
2019-01-04T04:04:20.014Z,99619.86
2019-01-04T04:05:57.003Z,99624.98
2019-01-04T04:07:32.374Z,99630.91
2019-01-04T04:09:08.622Z,99628.23
2019-01-04T04:10:44.306Z,99626.33
2019-01-04T04:12:19.720Z,99631.80
2019-01-04T04:13:55.276Z,99633.39
2019-01-04T04:15:30.624Z,99634.19
2019-01-04T04:17:05.944Z,99642.56
2019-01-04T04:18:41.648Z,99644.15
2019-01-04T04:20:16.886Z,99646.50
2019-01-04T04:21:54.327Z,99663.98
2019-01-04T04:23:29.925Z,99660.20
2019-01-04T04:25:05.279Z,99673.66
2019-01-04T04:26:40.931Z,99678.19
2019-01-04T04:28:17.476Z,99681.47
2019-01-04T04:29:53.499Z,99687.65
2019-01-04T04:31:28.814Z,99691.38
2019-01-04T04:33:04.326Z,99693.47
2019-01-04T04:34:42.739Z,99703.48
2019-01-04T04:36:18.094Z,99708.38
2019-01-04T04:37:53.405Z,99718.03
2019-01-04T04:39:28.815Z,99721.22
2019-01-04T04:41:04.169Z,99726.84
2019-01-04T04:42:39.586Z,99728.20
2019-01-04T04:44:14.875Z,99732.23
2019-01-04T04:45:50.078Z,99735.27
2019-01-04T04:47:25.295Z,99737.50
2019-01-04T04:49:01.079Z,99731.32
2019-01-04T04:50:36.400Z,99739.94
2019-01-04T04:52:11.597Z,99728.93
2019-01-04T04:53:46.918Z,99734.80
2019-01-04T04:55:22.347Z,99733.93
2019-01-04T04:56:57.894Z,99738.51
2019-01-04T04:58:38.791Z,99739.86
2019-01-04T05:00:15.675Z,99755.70
2019-01-04T05:01:51.327Z,99751.06
2019-01-04T05:03:27.704Z,99754.80
2019-01-04T05:05:03.714Z,99759.08
2019-01-04T05:06:40.135Z,99767.10
2019-01-04T05:08:16.003Z,99768.15
2019-01-04T05:09:51.369Z,99773.03
2019-01-04T05:11:27.371Z,99772.23
2019-01-04T05:13:02.575Z,99778.66
2019-01-04T05:14:37.823Z,99775.42
2019-01-04T05:16:16.085Z,99774.63
2019-01-04T05:17:54.334Z,99781.84
2019-01-04T05:19:29.876Z,99785.55
2019-01-04T05:21:05.547Z,99795.05
2019-01-04T05:22:40.785Z,99804.09
2019-01-04T05:24:16.162Z,99816.45
2019-01-04T05:25:51.533Z,99819.14
2019-01-04T05:27:27.097Z,99820.73
2019-01-04T05:29:04.779Z,99827.91
2019-01-04T05:30:40.146Z,99828.95
2019-01-04T05:32:15.355Z,99834.14
2019-01-04T05:33:53.399Z,99852.12
2019-01-04T05:35:35.551Z,99856.16
2019-01-04T05:37:12.888Z,100087.00
2019-01-04T05:38:50.064Z,100211.89
2019-01-04T05:40:25.625Z,100299.67
2019-01-04T05:42:03.158Z,100322.55
2019-01-04T05:43:46.291Z,100341.67
2019-01-04T05:45:22.403Z,100360.53
2019-01-04T05:46:58.139Z,100375.29
2019-01-04T05:48:34.198Z,100389.20
2019-01-04T05:50:11.851Z,100401.27
2019-01-04T05:51:47.298Z,100406.36
2019-01-04T05:53:24.806Z,100424.17
2019-01-04T05:55:01.926Z,100433.87
2019-01-04T05:56:44.676Z,100441.64
2019-01-04T05:58:22.051Z,100451.84
2019-01-04T05:59:57.238Z,100459.70
2019-01-04T06:01:35.642Z,100469.41
2019-01-04T06:03:10.969Z,100489.28
2019-01-04T06:04:48.706Z,100495.14
2019-01-04T06:06:24.107Z,100507.98
2019-01-04T06:08:05.460Z,100519.27
2019-01-04T06:09:47.068Z,100521.19
2019-01-04T06:11:30.694Z,100526.03
2019-01-04T06:13:06.129Z,100517.48
2019-01-04T06:14:41.681Z,100524.76
2019-01-04T06:16:16.974Z,100524.23
2019-01-04T06:17:53.822Z,100535.27
2019-01-04T06:19:31.489Z,100540.86
2019-01-04T06:21:11.590Z,100549.27
2019-01-04T06:22:50.224Z,100564.08
2019-01-04T06:24:28.125Z,100566.22
2019-01-04T06:26:06.787Z,100577.27
2019-01-04T06:27:47.375Z,100581.23
2019-01-04T06:29:24.786Z,100577.48
2019-01-04T06:31:03.123Z,100596.92
2019-01-04T06:32:41.279Z,100598.83
2019-01-04T06:34:18.834Z,100610.12
2019-01-04T06:35:57.175Z,100620.89
2019-01-04T06:37:33.671Z,100625.19
2019-01-04T06:39:11.995Z,100632.72
2019-01-04T06:40:49.827Z,100641.59
2019-01-04T06:42:27.587Z,100651.28
2019-01-04T06:44:04.065Z,100641.27
2019-01-04T06:45:42.331Z,100652.58
2019-01-04T06:47:21.074Z,100659.03
2019-01-04T06:48:56.483Z,100666.29
2019-01-04T06:50:32.166Z,100667.09
2019-01-04T06:52:08.143Z,100670.59
2019-01-04T06:53:43.820Z,100681.09
2019-01-04T06:56:07.610Z,100686.20
2019-01-04T06:57:44.422Z,100699.95
2019-01-04T06:59:26.326Z,100701.81
2019-01-04T07:01:06.408Z,100708.55
2019-01-04T07:02:39.984Z,100724.95
2019-01-04T07:04:15.644Z,100731.44
2019-01-04T07:05:55.920Z,100743.81
2019-01-04T07:07:34.252Z,100760.50
2019-01-04T07:09:09.565Z,100765.63
2019-01-04T07:10:45.888Z,100772.64
2019-01-04T07:12:21.417Z,100787.44
2019-01-04T07:13:57.794Z,100790.13
2019-01-04T07:15:33.475Z,100794.17
2019-01-04T07:17:08.712Z,100796.86
2019-01-04T07:18:44.770Z,100801.17
2019-01-04T07:20:20.524Z,100808.73
2019-01-04T07:21:56.931Z,100814.62
2019-01-04T07:23:32.710Z,100821.91
2019-01-04T07:25:08.962Z,100823.79
2019-01-04T07:26:47.917Z,100826.22
2019-01-04T07:28:24.611Z,100827.29
2019-01-04T07:30:00.240Z,100829.70
2019-01-04T07:31:37.101Z,100834.83
2019-01-04T07:33:14.131Z,100828.90
2019-01-04T07:34:49.843Z,100834.28
2019-01-04T07:36:26.044Z,100842.62
2019-01-04T07:38:03.389Z,100872.20
2019-01-04T07:39:39.454Z,100883.28
2019-01-04T07:41:15.381Z,100895.91
2019-01-04T07:42:51.665Z,100897.56
2019-01-04T07:44:31.826Z,100910.72
2019-01-04T07:46:09.391Z,100919.86
2019-01-04T07:47:44.759Z,100926.86
2019-01-04T07:49:20.042Z,100922.83
2019-01-04T07:50:55.985Z,100933.86
2019-01-04T07:52:32.772Z,100935.76
2019-01-04T07:54:08.843Z,100952.98
2019-01-04T07:55:44.848Z,100959.45
2019-01-04T07:57:20.750Z,100977.77
2019-01-04T07:58:57.208Z,100996.08
2019-01-04T08:00:35.369Z,100999.31
2019-01-04T08:02:39.066Z,101009.00
2019-01-04T08:04:16.258Z,101009.27
2019-01-04T08:05:53.049Z,101005.77
2019-01-04T08:07:28.817Z,100999.30
2019-01-04T08:09:05.248Z,100999.84
2019-01-04T08:10:42.422Z,100995.58
2019-01-04T08:12:17.878Z,100997.73
2019-01-04T08:13:53.252Z,101004.73
2019-01-04T08:15:29.180Z,101014.97
2019-01-04T08:17:04.778Z,101025.47
2019-01-04T08:18:40.149Z,101031.39
2019-01-04T08:20:16.423Z,101042.70
2019-01-04T08:21:52.414Z,101051.56
2019-01-04T08:23:27.968Z,101057.21
2019-01-04T08:25:03.900Z,101061.52
2019-01-04T08:26:39.266Z,101067.17
2019-01-04T08:28:14.882Z,101085.76
2019-01-04T08:29:56.084Z,101102.19
2019-01-04T08:31:33.987Z,101109.45
2019-01-04T08:33:09.519Z,101119.70
2019-01-04T08:34:45.717Z,101127.77
2019-01-04T08:36:21.455Z,101135.31
2019-01-04T08:37:56.755Z,101150.13
2019-01-04T08:39:32.308Z,101164.14
2019-01-04T08:41:08.186Z,101166.83
2019-01-04T08:42:45.118Z,101175.42
2019-01-04T08:44:23.006Z,101191.05
2019-01-04T08:45:59.251Z,101191.31
2019-01-04T08:47:35.296Z,101196.70
2019-01-04T08:49:13.491Z,101204.78
2019-01-04T08:50:55.952Z,101209.13
2019-01-04T08:52:31.043Z,101223.91
2019-01-04T08:54:11.968Z,101231.73
2019-01-04T08:55:47.711Z,101243.31
2019-01-04T08:57:23.478Z,101250.05
2019-01-04T08:58:58.949Z,101252.20
2019-01-04T09:00:34.609Z,101267.55
2019-01-04T09:02:10.321Z,101281.56
2019-01-04T09:03:48.348Z,101289.38
2019-01-04T09:05:23.822Z,101297.73
2019-01-04T09:07:02.487Z,101306.91
2019-01-04T09:08:39.444Z,101313.36
2019-01-04T09:10:14.799Z,101327.64
2019-01-04T09:11:50.184Z,101337.61
2019-01-04T09:13:25.616Z,101346.77
2019-01-04T09:15:01.155Z,101350.28
2019-01-04T09:16:37.840Z,101362.13
2019-01-04T09:18:19.581Z,101359.16
2019-01-04T09:19:56.434Z,101377.21
2019-01-04T09:21:40.292Z,101378.81
2019-01-04T09:23:17.045Z,101389.59
2019-01-04T09:24:55.289Z,101399.29
2019-01-04T09:26:37.386Z,101402.25
2019-01-04T09:28:18.162Z,101414.64
2019-01-04T09:29:56.446Z,101411.67
2019-01-04T09:31:32.081Z,101430.27
2019-01-04T09:33:09.790Z,101437.83
2019-01-04T09:34:47.026Z,101437.00
2019-01-04T09:36:24.227Z,101443.75
2019-01-04T09:37:59.554Z,101449.92
2019-01-04T09:39:34.923Z,101444.52
2019-01-04T09:41:38.847Z,101450.19
2019-01-04T09:43:19.386Z,101457.47
2019-01-04T09:44:57.246Z,101462.31
2019-01-04T09:46:32.628Z,101464.74
2019-01-04T09:48:08.196Z,101479.59
2019-01-04T09:49:44.224Z,101487.95
2019-01-04T09:51:22.770Z,101486.08
2019-01-04T09:53:02.467Z,101495.75
2019-01-04T09:54:42.315Z,101496.56
2019-01-04T09:56:19.228Z,101504.42
2019-01-04T09:57:59.325Z,101504.97
2019-01-04T09:59:35.356Z,101524.38
2019-01-04T10:01:13.090Z,101533.28
2019-01-04T10:02:50.431Z,101540.55
2019-01-04T10:04:28.675Z,101537.56
2019-01-04T10:06:04.499Z,101543.23
2019-01-04T10:07:42.932Z,101556.17
2019-01-04T10:09:27.432Z,101555.62
2019-01-04T10:11:16.653Z,101558.59
2019-01-04T10:12:57.776Z,101560.20
2019-01-04T10:14:40.639Z,101563.99
2019-01-04T10:16:17.538Z,101562.67
2019-01-04T10:17:53.212Z,101568.57
2019-01-04T10:19:37.324Z,101573.72
2019-01-04T10:21:12.926Z,101574.27
2019-01-04T10:22:51.596Z,101572.91
2019-01-04T10:24:29.713Z,101573.98
2019-01-04T10:26:05.429Z,101571.52
2019-01-04T10:27:43.376Z,101573.15
2019-01-04T10:29:25.438Z,101564.53
2019-01-04T10:31:03.628Z,101562.92
2019-01-04T10:32:44.712Z,101560.20
2019-01-04T10:34:19.885Z,101568.31
2019-01-04T10:35:58.947Z,101564.82
2019-01-04T10:37:36.811Z,101566.45
2019-01-04T10:39:12.893Z,101576.70
2019-01-04T10:40:50.724Z,101575.36
2019-01-04T10:42:31.585Z,101577.48
2019-01-04T10:44:08.116Z,101583.14
2019-01-04T10:45:43.882Z,101585.00
2019-01-04T10:47:19.259Z,101594.71
2019-01-04T10:48:55.184Z,101589.59
2019-01-04T10:50:34.636Z,101602.00
2019-01-04T10:52:13.258Z,101608.76
2019-01-04T10:53:53.671Z,101614.19
2019-01-04T10:55:34.058Z,101628.49
2019-01-04T10:57:15.149Z,101644.72
2019-01-04T10:58:55.286Z,101647.69
2019-01-04T11:00:41.110Z,101645.78
2019-01-04T11:02:25.091Z,101662.81
2019-01-04T11:04:02.735Z,101677.39
2019-01-04T11:05:40.143Z,101680.11
2019-01-04T11:07:33.625Z,101679.55
2019-01-04T11:09:19.708Z,101686.28
2019-01-04T11:11:03.370Z,101683.83
2019-01-04T11:12:37.409Z,101698.94
2019-01-04T11:14:12.792Z,101700.82
2019-01-04T11:15:52.051Z,101705.16
2019-01-04T11:17:36.592Z,101714.31
2019-01-04T11:19:12.731Z,101732.66
2019-01-04T11:20:51.124Z,101731.56
2019-01-04T11:22:56.643Z,101738.31
2019-01-04T11:25:17.192Z,101739.40
2019-01-04T11:27:12.392Z,101749.38
2019-01-04T11:29:16.302Z,101753.14
2019-01-04T11:31:09.474Z,101757.19
2019-01-04T11:33:18.134Z,101759.34
2019-01-04T11:35:24.736Z,101762.86
2019-01-04T11:37:42.883Z,101790.34
2019-01-04T11:39:48.511Z,101780.92
2019-01-04T11:42:17.613Z,101790.34
2019-01-04T11:44:19.990Z,101799.81
2019-01-04T11:46:36.004Z,101812.76
2019-01-04T11:48:36.001Z,101818.17
2019-01-04T11:50:39.239Z,101825.22
2019-01-04T11:52:40.833Z,101828.17
2019-01-04T11:54:26.469Z,101835.45
2019-01-04T11:56:04.977Z,101835.98
2019-01-04T11:57:42.867Z,101835.94
2019-01-04T11:59:20.559Z,101847.26
2019-01-04T12:01:03.679Z,101849.15
2019-01-04T12:02:43.555Z,101853.48
2019-01-04T12:04:26.434Z,101851.59
2019-01-04T12:06:05.461Z,101862.62
2019-01-04T12:07:41.240Z,101867.77
2019-01-04T12:09:18.503Z,101871.00
2019-01-04T12:10:55.998Z,101899.34
2019-01-04T12:12:36.739Z,101894.77
2019-01-04T12:14:17.424Z,101910.44
2019-01-04T12:15:57.954Z,101898.61
2019-01-04T12:17:38.307Z,101896.14
2019-01-04T12:19:19.781Z,101898.84
2019-01-04T12:21:01.591Z,101911.81
2019-01-04T12:22:52.375Z,101915.88
2019-01-04T12:24:39.956Z,101934.00
2019-01-04T12:26:28.871Z,101928.06
2019-01-04T12:28:33.359Z,101955.06
2019-01-04T12:30:10.153Z,101955.07
2019-01-04T12:31:46.669Z,101969.37
2019-01-04T12:33:30.964Z,101973.14
2019-01-04T12:35:10.561Z,101979.89
2019-01-04T12:36:57.460Z,101978.28
2019-01-04T12:38:39.617Z,101992.84
2019-01-04T12:40:16.015Z,101980.92
2019-01-04T12:42:07.337Z,101977.16
2019-01-04T12:43:48.302Z,101985.00
2019-01-04T12:45:33.082Z,101975.25
2019-01-04T12:47:14.531Z,101980.67
2019-01-04T12:48:52.337Z,101979.83
2019-01-04T12:50:34.364Z,101986.58
2019-01-04T12:52:18.985Z,101992.48
2019-01-04T12:54:02.568Z,101995.45
2019-01-04T12:55:40.082Z,101993.02
2019-01-04T12:57:35.352Z,101998.41
2019-01-04T12:59:22.287Z,101990.82
2019-01-04T13:00:59.211Z,101995.43
2019-01-04T13:02:37.076Z,102000.85
2019-01-04T13:04:13.416Z,102013.36
2019-01-04T13:05:56.787Z,102033.09
2019-01-04T13:07:37.204Z,102042.89
2019-01-04T13:09:16.969Z,102044.78
2019-01-04T13:10:56.600Z,102050.71
2019-01-04T13:12:39.128Z,102049.84
2019-01-04T13:14:20.649Z,102063.02
2019-01-04T13:16:00.824Z,102050.84
2019-01-04T13:17:41.458Z,102043.57
2019-01-04T13:19:18.711Z,102050.59
2019-01-04T13:20:58.251Z,102060.32
2019-01-04T13:22:36.528Z,102065.19
2019-01-04T13:24:16.578Z,102063.27
2019-01-04T13:25:54.220Z,102062.68
2019-01-04T13:27:35.791Z,102057.03
2019-01-04T13:29:15.861Z,102054.86
2019-01-04T13:31:00.063Z,102057.31
2019-01-04T13:32:35.583Z,102059.73
2019-01-04T13:34:36.578Z,102055.96
2019-01-04T13:36:18.490Z,102054.08
2019-01-04T13:38:09.276Z,102064.34
2019-01-04T13:39:46.235Z,102046.55
2019-01-04T13:41:46.608Z,102051.41
2019-01-04T13:43:29.961Z,102044.39
2019-01-04T13:45:27.057Z,102039.75
2019-01-04T13:47:02.906Z,102028.14
2019-01-04T13:48:42.389Z,102044.08
2019-01-04T13:50:27.763Z,102043.01
2019-01-04T13:52:08.368Z,102041.91
2019-01-04T13:53:56.513Z,102052.95
2019-01-04T13:55:32.338Z,102054.58
2019-01-04T13:57:10.186Z,102059.42
2019-01-04T13:58:56.087Z,102070.48
2019-01-04T14:00:43.017Z,102068.04
2019-01-04T14:02:23.696Z,102086.67
2019-01-04T14:04:02.411Z,102091.22
2019-01-04T14:05:44.070Z,102079.65
2019-01-04T14:07:23.194Z,102087.77
2019-01-04T14:09:12.088Z,102083.45
2019-01-04T14:10:48.848Z,102085.05
2019-01-04T14:12:27.249Z,102085.58
2019-01-04T14:14:20.665Z,102089.62
2019-01-04T14:16:09.338Z,102097.19
2019-01-04T14:17:51.010Z,102096.37
2019-01-04T14:19:31.938Z,102103.14
2019-01-04T14:21:19.594Z,102102.08
2019-01-04T14:23:19.419Z,102109.08
2019-01-04T14:24:59.963Z,102093.42
2019-01-04T14:26:38.066Z,102076.14
2019-01-04T14:28:36.730Z,102093.17
2019-01-04T14:30:18.404Z,102100.70
2019-01-04T14:31:56.653Z,102093.67
2019-01-04T14:33:48.286Z,102095.80
2019-01-04T14:35:28.089Z,102093.64
2019-01-04T14:37:06.766Z,102090.87
2019-01-04T14:38:46.132Z,102089.20
2019-01-04T14:40:29.417Z,102090.55
2019-01-04T14:42:03.315Z,102081.39
2019-01-04T14:43:43.997Z,102094.31
2019-01-04T14:45:20.191Z,102087.29
2019-01-04T14:47:07.608Z,102096.52
2019-01-04T14:48:47.518Z,102105.70
2019-01-04T14:50:24.238Z,102118.37
2019-01-04T14:52:03.616Z,102121.36
2019-01-04T14:53:41.332Z,102116.75
2019-01-04T14:55:21.770Z,102123.45
2019-01-04T14:57:05.179Z,102139.67
2019-01-04T14:58:44.588Z,102145.31
2019-01-04T15:00:22.125Z,102156.11
2019-01-04T15:01:57.536Z,102164.23
2019-01-04T15:03:33.362Z,102158.27
2019-01-04T15:05:10.367Z,102154.75
2019-01-04T15:06:46.802Z,102154.22
2019-01-04T15:08:23.358Z,102177.93
2019-01-04T15:09:58.893Z,102185.77
2019-01-04T15:11:52.914Z,102200.89
2019-01-04T15:13:44.537Z,102192.80
2019-01-04T15:15:22.009Z,102192.80
2019-01-04T15:17:07.759Z,102196.84
2019-01-04T15:18:50.860Z,102195.78
2019-01-04T15:20:30.756Z,102191.45
2019-01-04T15:22:10.823Z,102185.53
2019-01-04T15:23:52.493Z,102190.64
2019-01-04T15:25:36.121Z,102193.91
2019-01-04T15:27:14.785Z,102196.84
2019-01-04T15:28:51.202Z,102202.53
2019-01-04T15:30:27.276Z,102207.67
2019-01-04T15:32:09.688Z,102196.89
2019-01-04T15:33:51.219Z,102195.82
2019-01-04T15:35:29.059Z,102187.73
2019-01-04T15:37:04.382Z,102186.09
2019-01-04T15:38:46.427Z,102185.84
2019-01-04T15:40:30.524Z,102175.06
2019-01-04T15:42:07.673Z,102168.56
2019-01-04T15:43:46.502Z,102162.10
2019-01-04T15:45:25.101Z,102177.76
2019-01-04T15:47:02.102Z,102179.64
2019-01-04T15:48:45.907Z,102187.20
2019-01-04T15:50:22.518Z,102204.77
2019-01-04T15:52:03.366Z,102211.52
2019-01-04T15:53:50.002Z,102213.67
2019-01-04T15:55:27.126Z,102207.75
2019-01-04T15:57:07.497Z,102216.91
2019-01-04T15:58:53.094Z,102213.39
2019-01-04T16:00:34.785Z,102224.72
2019-01-04T16:02:20.889Z,102219.61
2019-01-04T16:04:00.139Z,102232.27
2019-01-04T16:05:36.157Z,102237.67
2019-01-04T16:07:14.848Z,102230.64
2019-01-04T16:08:57.955Z,102232.52
2019-01-04T16:10:37.941Z,102236.86
2019-01-04T16:12:14.835Z,102232.81
2019-01-04T16:13:50.614Z,102230.64
2019-01-04T16:15:26.414Z,102234.41
2019-01-04T16:17:11.944Z,102242.78
2019-01-04T16:18:45.003Z,102236.00
2019-01-04T16:20:23.326Z,102250.59
2019-01-04T16:22:04.563Z,102252.47
2019-01-04T16:23:48.735Z,102250.30
2019-01-04T16:25:33.222Z,102251.94
2019-01-04T16:27:13.735Z,102273.23
2019-01-04T16:28:58.722Z,102268.90
2019-01-04T16:30:43.617Z,102272.38
2019-01-04T16:32:40.187Z,102266.69
2019-01-04T16:34:28.168Z,102273.19
2019-01-04T16:36:05.732Z,102264.77
2019-01-04T16:37:47.588Z,102269.63
2019-01-04T16:39:41.775Z,102269.63
2019-01-04T16:41:24.214Z,102274.50
2019-01-04T16:43:03.955Z,102287.98
2019-01-04T16:44:49.565Z,102291.20
2019-01-04T16:46:33.493Z,102289.28
2019-01-04T16:48:14.909Z,102296.84
2019-01-04T16:49:52.569Z,102297.66
2019-01-04T16:51:30.212Z,102291.45
2019-01-04T16:53:08.461Z,102291.69
2019-01-04T16:54:46.999Z,102290.87
2019-01-04T16:56:28.068Z,102286.58
2019-01-04T16:58:05.433Z,102296.84
2019-01-04T16:59:42.762Z,102292.22
2019-01-04T17:01:23.569Z,102306.52
2019-01-04T17:03:03.029Z,102307.63
2019-01-04T17:04:41.398Z,102302.77
2019-01-04T17:06:19.230Z,102312.77
2019-01-04T17:07:59.384Z,102321.36
2019-01-04T17:09:44.514Z,102320.58
2019-01-04T17:11:24.221Z,102318.66
2019-01-04T17:13:06.133Z,102324.30
2019-01-04T17:14:43.557Z,102321.06
2019-01-04T17:16:21.105Z,102328.91
2019-01-04T17:18:04.625Z,102341.05
2019-01-04T17:19:41.032Z,102346.45
2019-01-04T17:21:17.150Z,102357.52
2019-01-04T17:23:01.515Z,102373.46
2019-01-04T17:24:37.388Z,102362.91
2019-01-04T17:26:24.455Z,102373.17
2019-01-04T17:28:01.180Z,102375.05
2019-01-04T17:29:36.983Z,102385.60
2019-01-04T17:31:14.271Z,102392.05
2019-01-04T17:32:51.215Z,102386.66
2019-01-04T17:34:33.607Z,102385.84
2019-01-04T17:36:16.117Z,102387.48
2019-01-04T17:38:07.738Z,102397.17
2019-01-04T17:39:57.244Z,102390.19
2019-01-04T17:41:40.354Z,102396.41
2019-01-04T17:43:22.317Z,102392.89
2019-01-04T17:44:58.761Z,102403.15
2019-01-04T17:46:43.224Z,102407.19
2019-01-04T17:48:28.368Z,102414.52
2019-01-04T17:50:12.224Z,102415.28
2019-01-04T17:51:51.256Z,102417.45
2019-01-04T17:53:31.068Z,102426.66
2019-01-04T17:55:13.091Z,102421.26
2019-01-04T17:56:52.282Z,102410.70
2019-01-04T17:58:34.976Z,102405.03
2019-01-04T18:00:22.350Z,102410.94
2019-01-04T18:02:05.796Z,102421.20
2019-01-04T18:03:47.404Z,102424.44
2019-01-04T18:05:27.402Z,102431.23
2019-01-04T18:07:06.613Z,102433.11
2019-01-04T18:08:46.026Z,102428.76
2019-01-04T18:10:21.354Z,102425.77
2019-01-04T18:12:04.993Z,102423.80
2019-01-04T18:13:45.183Z,102432.70
2019-01-04T18:15:29.420Z,102424.27
2019-01-04T18:17:07.372Z,102422.59
2019-01-04T18:18:45.980Z,102436.63
2019-01-04T18:20:27.724Z,102432.31
2019-01-04T18:22:08.030Z,102431.55
2019-01-04T18:23:45.437Z,102439.93
2019-01-04T18:25:25.758Z,102450.77
2019-01-04T18:27:07.972Z,102445.90
2019-01-04T18:28:48.034Z,102453.75
2019-01-04T18:30:28.183Z,102456.45
2019-01-04T18:32:09.398Z,102462.13
2019-01-04T18:33:48.483Z,102477.02
2019-01-04T18:35:35.768Z,102487.83
2019-01-04T18:37:15.740Z,102485.13
2019-01-04T18:38:52.211Z,102486.77
2019-01-04T18:40:30.268Z,102497.84
2019-01-04T18:42:20.080Z,102492.45
2019-01-04T18:44:02.465Z,102491.92
2019-01-04T18:45:41.953Z,102505.98
2019-01-04T18:47:22.351Z,102498.42
2019-01-04T18:49:02.273Z,102500.06
2019-01-04T18:50:51.319Z,102508.69
2019-01-04T18:52:40.485Z,102501.65
2019-01-04T18:54:23.579Z,102508.39
2019-01-04T18:56:04.294Z,102509.50
2019-01-04T18:57:42.322Z,102504.06
2019-01-04T18:59:28.840Z,102494.56
2019-01-04T19:01:13.693Z,102499.20
2019-01-04T19:02:48.813Z,102500.02
2019-01-04T19:04:37.130Z,102504.30
2019-01-04T19:06:17.912Z,102497.03
2019-01-04T19:08:01.696Z,102503.00
2019-01-04T19:09:49.986Z,102505.94
2019-01-04T19:11:27.025Z,102501.65
2019-01-04T19:13:16.206Z,102495.44
2019-01-04T19:14:58.789Z,102492.50
2019-01-04T19:16:45.864Z,102498.77
2019-01-04T19:18:51.172Z,102507.44
2019-01-04T19:20:40.348Z,102511.25
2019-01-04T19:22:22.562Z,102522.83